sensor_id;sensor_type;location;lat;lon;timestamp;P1;durP1;ratioP1;P2;durP2;ratioP2
63120;SDS011;54478;48.684;20.114;2022-07-01T00:02:14;8.18;;;4.80;;
63120;SDS011;54478;48.684;20.114;2022-07-01T00:04:42;5.93;;;4.82;;
63120;SDS011;54478;48.684;20.114;2022-07-01T00:07:11;6.15;;;4.50;;
63120;SDS011;54478;48.684;20.114;2022-07-01T00:09:39;8.68;;;4.72;;
63120;SDS011;54478;48.684;20.114;2022-07-01T00:12:08;13.23;;;4.97;;
63120;SDS011;54478;48.684;20.114;2022-07-01T00:14:36;6.38;;;4.80;;
63120;SDS011;54478;48.684;20.114;2022-07-01T00:17:05;8.30;;;4.85;;
63120;SDS011;54478;48.684;20.114;2022-07-01T00:19:33;6.88;;;4.85;;
63120;SDS011;54478;48.684;20.114;2022-07-01T00:22:01;6.78;;;4.60;;
63120;SDS011;54478;48.684;20.114;2022-07-01T00:24:30;6.38;;;5.03;;
63120;SDS011;54478;48.684;20.114;2022-07-01T00:26:58;7.57;;;4.72;;
63120;SDS011;54478;48.684;20.114;2022-07-01T00:29:27;7.55;;;5.13;;
63120;SDS011;54478;48.684;20.114;2022-07-01T00:31:52;4.97;;;4.38;;
63120;SDS011;54478;48.684;20.114;2022-07-01T00:34:20;6.82;;;4.82;;
63120;SDS011;54478;48.684;20.114;2022-07-01T00:36:50;7.13;;;5.13;;
63120;SDS011;54478;48.684;20.114;2022-07-01T00:39:18;5.53;;;4.43;;
63120;SDS011;54478;48.684;20.114;2022-07-01T00:41:46;7.65;;;4.80;;
63120;SDS011;54478;48.684;20.114;2022-07-01T00:44:18;5.32;;;4.63;;
63120;SDS011;54478;48.684;20.114;2022-07-01T00:46:48;7.63;;;5.32;;
63120;SDS011;54478;48.684;20.114;2022-07-01T00:49:15;6.63;;;4.85;;
63120;SDS011;54478;48.684;20.114;2022-07-01T00:51:44;8.05;;;4.80;;
63120;SDS011;54478;48.684;20.114;2022-07-01T00:54:12;5.45;;;4.32;;
63120;SDS011;54478;48.684;20.114;2022-07-01T00:56:42;6.28;;;4.78;;
63120;SDS011;54478;48.684;20.114;2022-07-01T00:59:10;6.53;;;5.10;;
63120;SDS011;54478;48.684;20.114;2022-07-01T01:01:39;7.68;;;4.75;;
63120;SDS011;54478;48.684;20.114;2022-07-01T01:04:07;7.55;;;4.90;;
63120;SDS011;54478;48.684;20.114;2022-07-01T01:06:36;8.90;;;5.85;;
63120;SDS011;54478;48.684;20.114;2022-07-01T01:09:04;8.07;;;5.15;;
63120;SDS011;54478;48.684;20.114;2022-07-01T01:11:33;6.13;;;4.97;;
63120;SDS011;54478;48.684;20.114;2022-07-01T01:14:01;6.07;;;5.00;;
63120;SDS011;54478;48.684;20.114;2022-07-01T01:16:29;7.07;;;5.50;;
63120;SDS011;54478;48.684;20.114;2022-07-01T01:18:58;7.03;;;4.65;;
63120;SDS011;54478;48.684;20.114;2022-07-01T01:21:26;8.80;;;4.65;;
63120;SDS011;54478;48.684;20.114;2022-07-01T01:23:54;6.75;;;5.25;;
63120;SDS011;54478;48.684;20.114;2022-07-01T01:26:22;6.55;;;4.60;;
63120;SDS011;54478;48.684;20.114;2022-07-01T01:28:53;6.00;;;4.97;;
63120;SDS011;54478;48.684;20.114;2022-07-01T01:31:26;5.72;;;4.57;;
63120;SDS011;54478;48.684;20.114;2022-07-01T01:33:56;6.45;;;5.00;;
63120;SDS011;54478;48.684;20.114;2022-07-01T01:36:25;10.25;;;5.35;;
63120;SDS011;54478;48.684;20.114;2022-07-01T01:38:53;6.65;;;5.03;;
63120;SDS011;54478;48.684;20.114;2022-07-01T01:41:24;7.07;;;5.03;;
63120;SDS011;54478;48.684;20.114;2022-07-01T01:43:52;5.88;;;4.72;;
63120;SDS011;54478;48.684;20.114;2022-07-01T01:46:21;6.13;;;4.60;;
63120;SDS011;54478;48.684;20.114;2022-07-01T01:48:49;6.93;;;4.82;;
63120;SDS011;54478;48.684;20.114;2022-07-01T01:51:17;6.25;;;4.88;;
63120;SDS011;54478;48.684;20.114;2022-07-01T01:53:47;6.82;;;4.90;;
63120;SDS011;54478;48.684;20.114;2022-07-01T01:56:16;6.05;;;4.75;;
63120;SDS011;54478;48.684;20.114;2022-07-01T01:58:44;6.13;;;5.30;;
63120;SDS011;54478;48.684;20.114;2022-07-01T02:01:13;6.75;;;4.45;;
63120;SDS011;54478;48.684;20.114;2022-07-01T02:03:42;6.40;;;4.85;;
63120;SDS011;54478;48.684;20.114;2022-07-01T02:06:12;6.75;;;4.93;;
63120;SDS011;54478;48.684;20.114;2022-07-01T02:08:43;7.90;;;4.68;;
63120;SDS011;54478;48.684;20.114;2022-07-01T02:11:11;9.63;;;5.35;;
63120;SDS011;54478;48.684;20.114;2022-07-01T02:13:37;6.30;;;4.95;;
63120;SDS011;54478;48.684;20.114;2022-07-01T02:16:06;6.38;;;4.72;;
63120;SDS011;54478;48.684;20.114;2022-07-01T02:18:34;6.20;;;4.70;;
63120;SDS011;54478;48.684;20.114;2022-07-01T02:21:02;6.78;;;5.00;;
63120;SDS011;54478;48.684;20.114;2022-07-01T02:23:31;6.32;;;5.07;;
63120;SDS011;54478;48.684;20.114;2022-07-01T02:25:59;5.93;;;4.90;;
63120;SDS011;54478;48.684;20.114;2022-07-01T02:28:27;17.83;;;5.78;;
63120;SDS011;54478;48.684;20.114;2022-07-01T02:30:53;6.15;;;5.32;;
63120;SDS011;54478;48.684;20.114;2022-07-01T02:33:21;8.43;;;5.38;;
63120;SDS011;54478;48.684;20.114;2022-07-01T02:35:50;6.40;;;5.00;;
63120;SDS011;54478;48.684;20.114;2022-07-01T02:38:18;6.72;;;4.85;;
63120;SDS011;54478;48.684;20.114;2022-07-01T02:40:46;6.30;;;4.72;;
63120;SDS011;54478;48.684;20.114;2022-07-01T02:43:15;8.00;;;4.68;;
63120;SDS011;54478;48.684;20.114;2022-07-01T02:45:44;9.52;;;5.18;;
63120;SDS011;54478;48.684;20.114;2022-07-01T02:48:13;6.95;;;5.07;;
63120;SDS011;54478;48.684;20.114;2022-07-01T02:50:41;6.53;;;4.85;;
63120;SDS011;54478;48.684;20.114;2022-07-01T02:53:09;7.40;;;4.90;;
63120;SDS011;54478;48.684;20.114;2022-07-01T02:55:38;11.63;;;5.50;;
63120;SDS011;54478;48.684;20.114;2022-07-01T02:58:06;7.80;;;4.38;;
63120;SDS011;54478;48.684;20.114;2022-07-01T03:00:35;9.98;;;5.50;;
63120;SDS011;54478;48.684;20.114;2022-07-01T03:03:03;6.82;;;4.93;;
63120;SDS011;54478;48.684;20.114;2022-07-01T03:05:32;7.70;;;5.35;;
63120;SDS011;54478;48.684;20.114;2022-07-01T03:08:00;7.72;;;5.00;;
63120;SDS011;54478;48.684;20.114;2022-07-01T03:10:28;18.85;;;6.53;;
63120;SDS011;54478;48.684;20.114;2022-07-01T03:12:57;7.57;;;5.15;;
63120;SDS011;54478;48.684;20.114;2022-07-01T03:15:27;6.55;;;4.95;;
63120;SDS011;54478;48.684;20.114;2022-07-01T03:17:56;6.55;;;4.68;;
63120;SDS011;54478;48.684;20.114;2022-07-01T03:20:24;6.43;;;4.80;;
63120;SDS011;54478;48.684;20.114;2022-07-01T03:22:53;8.35;;;5.32;;
63120;SDS011;54478;48.684;20.114;2022-07-01T03:25:21;10.13;;;5.65;;
63120;SDS011;54478;48.684;20.114;2022-07-01T03:27:50;6.60;;;4.93;;
63120;SDS011;54478;48.684;20.114;2022-07-01T03:30:18;6.68;;;5.10;;
63120;SDS011;54478;48.684;20.114;2022-07-01T03:32:46;7.13;;;5.00;;
63120;SDS011;54478;48.684;20.114;2022-07-01T03:35:15;7.78;;;4.75;;
63120;SDS011;54478;48.684;20.114;2022-07-01T03:37:59;6.60;;;4.60;;
63120;SDS011;54478;48.684;20.114;2022-07-01T03:40:27;6.75;;;4.97;;
63120;SDS011;54478;48.684;20.114;2022-07-01T03:42:56;6.95;;;4.93;;
63120;SDS011;54478;48.684;20.114;2022-07-01T03:45:24;6.45;;;5.15;;
63120;SDS011;54478;48.684;20.114;2022-07-01T03:47:53;7.32;;;5.40;;
63120;SDS011;54478;48.684;20.114;2022-07-01T03:50:22;6.93;;;5.18;;
63120;SDS011;54478;48.684;20.114;2022-07-01T03:52:52;6.15;;;5.43;;
63120;SDS011;54478;48.684;20.114;2022-07-01T03:55:39;9.35;;;5.30;;
63120;SDS011;54478;48.684;20.114;2022-07-01T03:58:05;9.40;;;5.25;;
63120;SDS011;54478;48.684;20.114;2022-07-01T04:00:35;11.95;;;5.53;;
63120;SDS011;54478;48.684;20.114;2022-07-01T04:03:04;10.32;;;5.70;;
63120;SDS011;54478;48.684;20.114;2022-07-01T04:05:34;11.43;;;5.82;;
63120;SDS011;54478;48.684;20.114;2022-07-01T04:08:04;8.60;;;5.47;;
63120;SDS011;54478;48.684;20.114;2022-07-01T04:10:34;10.63;;;6.45;;
63120;SDS011;54478;48.684;20.114;2022-07-01T04:13:03;7.72;;;4.90;;
63120;SDS011;54478;48.684;20.114;2022-07-01T04:15:31;11.20;;;5.97;;
63120;SDS011;54478;48.684;20.114;2022-07-01T04:18:00;11.52;;;5.47;;
63120;SDS011;54478;48.684;20.114;2022-07-01T04:20:28;10.13;;;5.55;;
63120;SDS011;54478;48.684;20.114;2022-07-01T04:22:57;11.73;;;5.95;;
63120;SDS011;54478;48.684;20.114;2022-07-01T04:25:25;8.45;;;5.25;;
63120;SDS011;54478;48.684;20.114;2022-07-01T04:27:56;7.40;;;5.00;;
63120;SDS011;54478;48.684;20.114;2022-07-01T04:30:22;0.75;;;0.75;;
63120;SDS011;54478;48.684;20.114;2022-07-01T04:32:50;0.43;;;0.43;;
63120;SDS011;54478;48.684;20.114;2022-07-01T04:35:18;0.52;;;0.52;;
63120;SDS011;54478;48.684;20.114;2022-07-01T04:37:47;0.10;;;0.10;;
63120;SDS011;54478;48.684;20.114;2022-07-01T04:40:15;0.40;;;0.40;;
63120;SDS011;54478;48.684;20.114;2022-07-01T04:42:43;0.20;;;0.20;;
63120;SDS011;54478;48.684;20.114;2022-07-01T04:45:12;0.77;;;0.77;;
63120;SDS011;54478;48.684;20.114;2022-07-01T04:47:40;0.10;;;0.10;;
63120;SDS011;54478;48.684;20.114;2022-07-01T04:50:08;0.40;;;0.40;;
63120;SDS011;54478;48.684;20.114;2022-07-01T04:52:36;0.22;;;0.22;;
63120;SDS011;54478;48.684;20.114;2022-07-01T04:55:06;3.20;;;2.33;;
63120;SDS011;54478;48.684;20.114;2022-07-01T04:57:34;0.73;;;0.73;;
63120;SDS011;54478;48.684;20.114;2022-07-01T05:00:03;0.20;;;0.20;;
63120;SDS011;54478;48.684;20.114;2022-07-01T05:02:31;0.10;;;0.10;;
63120;SDS011;54478;48.684;20.114;2022-07-01T05:05:00;1.45;;;1.17;;
63120;SDS011;54478;48.684;20.114;2022-07-01T05:07:28;0.30;;;0.30;;
63120;SDS011;54478;48.684;20.114;2022-07-01T05:09:57;0.30;;;0.30;;
63120;SDS011;54478;48.684;20.114;2022-07-01T05:12:27;0.10;;;0.10;;
63120;SDS011;54478;48.684;20.114;2022-07-01T05:14:55;0.20;;;0.20;;
63120;SDS011;54478;48.684;20.114;2022-07-01T05:17:23;0.25;;;0.25;;
63120;SDS011;54478;48.684;20.114;2022-07-01T05:20:12;0.20;;;0.20;;
63120;SDS011;54478;48.684;20.114;2022-07-01T05:22:56;0.20;;;0.20;;
63120;SDS011;54478;48.684;20.114;2022-07-01T05:25:25;0.30;;;0.30;;
63120;SDS011;54478;48.684;20.114;2022-07-01T05:27:53;1.48;;;1.38;;
63120;SDS011;54478;48.684;20.114;2022-07-01T05:30:24;0.45;;;0.45;;
63120;SDS011;54478;48.684;20.114;2022-07-01T05:32:53;8.82;;;2.33;;
63120;SDS011;54478;48.684;20.114;2022-07-01T05:35:21;0.50;;;0.22;;
63120;SDS011;54478;48.684;20.114;2022-07-01T05:37:49;1.15;;;1.05;;
63120;SDS011;54478;48.684;20.114;2022-07-01T05:40:18;0.60;;;0.60;;
63120;SDS011;54478;48.684;20.114;2022-07-01T05:42:46;0.38;;;0.38;;
63120;SDS011;54478;48.684;20.114;2022-07-01T05:45:15;0.30;;;0.30;;
63120;SDS011;54478;48.684;20.114;2022-07-01T05:47:43;0.25;;;0.25;;
63120;SDS011;54478;48.684;20.114;2022-07-01T05:50:12;0.60;;;0.60;;
63120;SDS011;54478;48.684;20.114;2022-07-01T05:52:40;0.20;;;0.20;;
63120;SDS011;54478;48.684;20.114;2022-07-01T05:55:10;0.22;;;0.22;;
63120;SDS011;54478;48.684;20.114;2022-07-01T05:57:39;0.28;;;0.28;;
63120;SDS011;54478;48.684;20.114;2022-07-01T06:00:07;0.45;;;0.45;;
63120;SDS011;54478;48.684;20.114;2022-07-01T06:02:37;0.20;;;0.20;;
63120;SDS011;54478;48.684;20.114;2022-07-01T06:05:06;0.52;;;0.52;;
63120;SDS011;54478;48.684;20.114;2022-07-01T06:07:34;0.45;;;0.45;;
63120;SDS011;54478;48.684;20.114;2022-07-01T06:10:03;0.77;;;0.77;;
63120;SDS011;54478;48.684;20.114;2022-07-01T06:12:31;0.30;;;0.30;;
63120;SDS011;54478;48.684;20.114;2022-07-01T06:14:59;0.20;;;0.20;;
63120;SDS011;54478;48.684;20.114;2022-07-01T06:17:28;0.45;;;0.45;;
63120;SDS011;54478;48.684;20.114;2022-07-01T06:19:56;0.57;;;0.57;;
63120;SDS011;54478;48.684;20.114;2022-07-01T06:22:24;0.32;;;0.32;;
63120;SDS011;54478;48.684;20.114;2022-07-01T06:24:52;0.45;;;0.45;;
63120;SDS011;54478;48.684;20.114;2022-07-01T06:27:21;0.30;;;0.30;;
63120;SDS011;54478;48.684;20.114;2022-07-01T06:29:49;0.50;;;0.50;;
63120;SDS011;54478;48.684;20.114;2022-07-01T06:32:15;0.63;;;0.63;;
63120;SDS011;54478;48.684;20.114;2022-07-01T06:34:44;0.30;;;0.30;;
63120;SDS011;54478;48.684;20.114;2022-07-01T06:37:12;0.35;;;0.35;;
63120;SDS011;54478;48.684;20.114;2022-07-01T06:39:41;0.65;;;0.65;;
63120;SDS011;54478;48.684;20.114;2022-07-01T06:42:09;1.50;;;1.17;;
63120;SDS011;54478;48.684;20.114;2022-07-01T06:44:37;0.30;;;0.30;;
63120;SDS011;54478;48.684;20.114;2022-07-01T06:47:05;0.75;;;0.75;;
63120;SDS011;54478;48.684;20.114;2022-07-01T06:49:31;0.35;;;0.35;;
63120;SDS011;54478;48.684;20.114;2022-07-01T06:52:00;0.30;;;0.30;;
63120;SDS011;54478;48.684;20.114;2022-07-01T06:54:28;21.27;;;1.95;;
63120;SDS011;54478;48.684;20.114;2022-07-01T06:56:56;0.75;;;0.75;;
63120;SDS011;54478;48.684;20.114;2022-07-01T06:59:25;0.65;;;0.65;;
63120;SDS011;54478;48.684;20.114;2022-07-01T07:01:53;0.43;;;0.43;;
63120;SDS011;54478;48.684;20.114;2022-07-01T07:04:18;0.85;;;0.85;;
63120;SDS011;54478;48.684;20.114;2022-07-01T07:06:47;8.25;;;6.65;;
63120;SDS011;54478;48.684;20.114;2022-07-01T07:09:15;14.95;;;7.35;;
63120;SDS011;54478;48.684;20.114;2022-07-01T07:11:44;13.75;;;6.35;;
63120;SDS011;54478;48.684;20.114;2022-07-01T07:14:12;12.02;;;6.43;;
63120;SDS011;54478;48.684;20.114;2022-07-01T07:16:41;11.25;;;7.13;;
63120;SDS011;54478;48.684;20.114;2022-07-01T07:19:09;10.75;;;6.43;;
63120;SDS011;54478;48.684;20.114;2022-07-01T07:21:38;9.27;;;6.20;;
63120;SDS011;54478;48.684;20.114;2022-07-01T07:24:07;10.20;;;6.95;;
63120;SDS011;54478;48.684;20.114;2022-07-01T07:26:35;10.35;;;6.80;;
63120;SDS011;54478;48.684;20.114;2022-07-01T07:29:04;12.82;;;6.60;;
63120;SDS011;54478;48.684;20.114;2022-07-01T07:31:29;12.65;;;6.95;;
63120;SDS011;54478;48.684;20.114;2022-07-01T07:33:57;9.45;;;6.70;;
63120;SDS011;54478;48.684;20.114;2022-07-01T07:36:26;11.75;;;6.97;;
63120;SDS011;54478;48.684;20.114;2022-07-01T07:38:54;11.88;;;7.43;;
63120;SDS011;54478;48.684;20.114;2022-07-01T07:41:22;11.98;;;6.43;;
63120;SDS011;54478;48.684;20.114;2022-07-01T07:43:51;9.30;;;6.25;;
63120;SDS011;54478;48.684;20.114;2022-07-01T07:46:19;11.48;;;7.25;;
63120;SDS011;54478;48.684;20.114;2022-07-01T07:48:47;10.25;;;6.45;;
63120;SDS011;54478;48.684;20.114;2022-07-01T07:51:16;13.38;;;6.60;;
63120;SDS011;54478;48.684;20.114;2022-07-01T07:53:45;15.68;;;6.63;;
63120;SDS011;54478;48.684;20.114;2022-07-01T07:56:14;12.23;;;7.57;;
63120;SDS011;54478;48.684;20.114;2022-07-01T07:58:42;12.75;;;7.20;;
63120;SDS011;54478;48.684;20.114;2022-07-01T08:01:11;9.23;;;6.70;;
63120;SDS011;54478;48.684;20.114;2022-07-01T08:03:40;25.73;;;8.75;;
63120;SDS011;54478;48.684;20.114;2022-07-01T08:06:08;9.43;;;5.88;;
63120;SDS011;54478;48.684;20.114;2022-07-01T08:08:36;7.03;;;6.10;;
63120;SDS011;54478;48.684;20.114;2022-07-01T08:11:05;9.57;;;6.32;;
63120;SDS011;54478;48.684;20.114;2022-07-01T08:13:33;9.77;;;6.25;;
63120;SDS011;54478;48.684;20.114;2022-07-01T08:16:02;14.70;;;6.68;;
63120;SDS011;54478;48.684;20.114;2022-07-01T08:18:31;11.52;;;5.90;;
63120;SDS011;54478;48.684;20.114;2022-07-01T08:21:00;11.60;;;5.82;;
63120;SDS011;54478;48.684;20.114;2022-07-01T08:23:28;15.23;;;5.88;;
63120;SDS011;54478;48.684;20.114;2022-07-01T08:25:57;15.40;;;6.10;;
63120;SDS011;54478;48.684;20.114;2022-07-01T08:28:25;10.50;;;4.88;;
63120;SDS011;54478;48.684;20.114;2022-07-01T08:30:50;10.10;;;5.03;;
63120;SDS011;54478;48.684;20.114;2022-07-01T08:33:18;10.43;;;5.18;;
63120;SDS011;54478;48.684;20.114;2022-07-01T08:35:47;10.52;;;5.68;;
63120;SDS011;54478;48.684;20.114;2022-07-01T08:38:15;7.43;;;5.18;;
63120;SDS011;54478;48.684;20.114;2022-07-01T08:40:43;8.52;;;4.88;;
63120;SDS011;54478;48.684;20.114;2022-07-01T08:43:13;6.25;;;5.03;;
63120;SDS011;54478;48.684;20.114;2022-07-01T08:45:41;11.02;;;5.38;;
63120;SDS011;54478;48.684;20.114;2022-07-01T08:48:10;9.05;;;5.10;;
63120;SDS011;54478;48.684;20.114;2022-07-01T08:50:39;6.85;;;4.85;;
63120;SDS011;54478;48.684;20.114;2022-07-01T08:53:09;8.18;;;4.50;;
63120;SDS011;54478;48.684;20.114;2022-07-01T08:55:39;7.65;;;4.75;;
63120;SDS011;54478;48.684;20.114;2022-07-01T08:58:27;7.50;;;4.60;;
63120;SDS011;54478;48.684;20.114;2022-07-01T09:00:53;11.60;;;4.68;;
63120;SDS011;54478;48.684;20.114;2022-07-01T09:03:40;7.28;;;4.18;;
63120;SDS011;54478;48.684;20.114;2022-07-01T09:06:13;7.65;;;4.15;;
63120;SDS011;54478;48.684;20.114;2022-07-01T09:08:48;8.35;;;4.50;;
63120;SDS011;54478;48.684;20.114;2022-07-01T09:11:16;5.78;;;4.15;;
63120;SDS011;54478;48.684;20.114;2022-07-01T09:16:41;11.07;;;4.28;;
63120;SDS011;54478;48.684;20.114;2022-07-01T09:19:18;5.95;;;4.00;;
63120;SDS011;54478;48.684;20.114;2022-07-01T09:26:53;6.53;;;3.50;;
63120;SDS011;54478;48.684;20.114;2022-07-01T09:29:30;9.55;;;3.90;;
63120;SDS011;54478;48.684;20.114;2022-07-01T09:31:57;6.97;;;3.42;;
63120;SDS011;54478;48.684;20.114;2022-07-01T09:34:24;9.82;;;3.63;;
63120;SDS011;54478;48.684;20.114;2022-07-01T09:36:53;11.75;;;4.18;;
63120;SDS011;54478;48.684;20.114;2022-07-01T09:39:23;9.27;;;3.67;;
63120;SDS011;54478;48.684;20.114;2022-07-01T09:41:55;8.55;;;3.85;;
63120;SDS011;54478;48.684;20.114;2022-07-01T09:44:25;8.00;;;5.90;;
63120;SDS011;54478;48.684;20.114;2022-07-01T09:46:55;10.43;;;3.97;;
63120;SDS011;54478;48.684;20.114;2022-07-01T09:49:25;8.45;;;3.80;;
63120;SDS011;54478;48.684;20.114;2022-07-01T09:51:53;8.45;;;3.78;;
63120;SDS011;54478;48.684;20.114;2022-07-01T09:54:22;8.55;;;4.07;;
63120;SDS011;54478;48.684;20.114;2022-07-01T09:56:50;5.47;;;3.38;;
63120;SDS011;54478;48.684;20.114;2022-07-01T09:59:18;11.52;;;4.25;;
63120;SDS011;54478;48.684;20.114;2022-07-01T10:01:47;5.63;;;3.80;;
63120;SDS011;54478;48.684;20.114;2022-07-01T10:04:15;5.10;;;3.53;;
63120;SDS011;54478;48.684;20.114;2022-07-01T10:06:55;5.72;;;3.70;;
63120;SDS011;54478;48.684;20.114;2022-07-01T10:12:42;13.90;;;4.03;;
63120;SDS011;54478;48.684;20.114;2022-07-01T10:15:11;7.45;;;4.40;;
63120;SDS011;54478;48.684;20.114;2022-07-01T10:17:45;8.30;;;4.10;;
63120;SDS011;54478;48.684;20.114;2022-07-01T10:22:43;6.93;;;4.10;;
63120;SDS011;54478;48.684;20.114;2022-07-01T10:31:12;8.60;;;4.88;;
63120;SDS011;54478;48.684;20.114;2022-07-01T10:33:42;10.20;;;4.15;;
63120;SDS011;54478;48.684;20.114;2022-07-01T10:36:15;7.00;;;4.00;;
63120;SDS011;54478;48.684;20.114;2022-07-01T10:41:28;8.07;;;3.80;;
63120;SDS011;54478;48.684;20.114;2022-07-01T10:43:59;9.63;;;3.95;;
63120;SDS011;54478;48.684;20.114;2022-07-01T10:52:04;10.00;;;4.38;;
63120;SDS011;54478;48.684;20.114;2022-07-01T10:59:49;8.48;;;4.63;;
63120;SDS011;54478;48.684;20.114;2022-07-01T11:02:21;6.05;;;4.15;;
63120;SDS011;54478;48.684;20.114;2022-07-01T11:04:49;9.00;;;4.63;;
63120;SDS011;54478;48.684;20.114;2022-07-01T11:07:16;5.88;;;4.15;;
63120;SDS011;54478;48.684;20.114;2022-07-01T11:09:44;8.48;;;4.43;;
63120;SDS011;54478;48.684;20.114;2022-07-01T11:12:09;8.48;;;4.60;;
63120;SDS011;54478;48.684;20.114;2022-07-01T11:14:39;10.85;;;4.75;;
63120;SDS011;54478;48.684;20.114;2022-07-01T11:17:06;5.72;;;4.40;;
63120;SDS011;54478;48.684;20.114;2022-07-01T11:19:35;6.93;;;4.85;;
63120;SDS011;54478;48.684;20.114;2022-07-01T11:22:04;10.00;;;4.40;;
63120;SDS011;54478;48.684;20.114;2022-07-01T11:24:33;9.02;;;4.43;;
63120;SDS011;54478;48.684;20.114;2022-07-01T11:27:06;9.70;;;4.97;;
63120;SDS011;54478;48.684;20.114;2022-07-01T11:29:35;11.73;;;4.40;;
63120;SDS011;54478;48.684;20.114;2022-07-01T11:32:01;7.90;;;5.00;;
63120;SDS011;54478;48.684;20.114;2022-07-01T11:34:31;8.57;;;5.20;;
63120;SDS011;54478;48.684;20.114;2022-07-01T11:36:59;11.35;;;5.05;;
63120;SDS011;54478;48.684;20.114;2022-07-01T11:39:43;7.30;;;4.82;;
63120;SDS011;54478;48.684;20.114;2022-07-01T11:42:12;9.07;;;5.00;;
63120;SDS011;54478;48.684;20.114;2022-07-01T11:44:41;11.35;;;5.53;;
63120;SDS011;54478;48.684;20.114;2022-07-01T11:49:48;12.77;;;5.25;;
63120;SDS011;54478;48.684;20.114;2022-07-01T11:52:17;8.57;;;4.75;;
63120;SDS011;54478;48.684;20.114;2022-07-01T11:54:47;10.75;;;5.15;;
63120;SDS011;54478;48.684;20.114;2022-07-01T11:57:17;7.68;;;5.50;;
63120;SDS011;54478;48.684;20.114;2022-07-01T11:59:48;10.35;;;5.32;;
63120;SDS011;54478;48.684;20.114;2022-07-01T12:02:40;15.18;;;5.10;;
63120;SDS011;54478;48.684;20.114;2022-07-01T12:05:05;7.88;;;5.10;;
63120;SDS011;54478;48.684;20.114;2022-07-01T12:07:35;10.50;;;5.28;;
63120;SDS011;54478;48.684;20.114;2022-07-01T12:10:03;9.63;;;5.65;;
63120;SDS011;54478;48.684;20.114;2022-07-01T12:12:32;6.55;;;5.22;;
63120;SDS011;54478;48.684;20.114;2022-07-01T12:15:00;9.70;;;5.63;;
63120;SDS011;54478;48.684;20.114;2022-07-01T12:17:28;12.30;;;5.95;;
63120;SDS011;54478;48.684;20.114;2022-07-01T12:19:56;8.88;;;5.43;;
63120;SDS011;54478;48.684;20.114;2022-07-01T12:22:25;7.70;;;5.72;;
63120;SDS011;54478;48.684;20.114;2022-07-01T12:27:49;6.05;;;5.38;;
63120;SDS011;54478;48.684;20.114;2022-07-01T12:30:22;12.32;;;5.25;;
63120;SDS011;54478;48.684;20.114;2022-07-01T12:32:52;8.80;;;5.55;;
63120;SDS011;54478;48.684;20.114;2022-07-01T12:35:23;11.35;;;5.93;;
63120;SDS011;54478;48.684;20.114;2022-07-01T12:38:14;7.85;;;5.93;;
63120;SDS011;54478;48.684;20.114;2022-07-01T12:40:41;7.88;;;5.70;;
63120;SDS011;54478;48.684;20.114;2022-07-01T12:43:21;6.80;;;5.53;;
63120;SDS011;54478;48.684;20.114;2022-07-01T12:45:47;9.77;;;6.32;;
63120;SDS011;54478;48.684;20.114;2022-07-01T12:48:16;9.45;;;5.68;;
63120;SDS011;54478;48.684;20.114;2022-07-01T12:50:41;7.88;;;6.30;;
63120;SDS011;54478;48.684;20.114;2022-07-01T12:53:17;11.38;;;6.07;;
63120;SDS011;54478;48.684;20.114;2022-07-01T12:55:53;9.20;;;6.22;;
63120;SDS011;54478;48.684;20.114;2022-07-01T12:58:24;11.35;;;6.15;;
63120;SDS011;54478;48.684;20.114;2022-07-01T13:00:55;6.78;;;6.07;;
63120;SDS011;54478;48.684;20.114;2022-07-01T13:03:23;9.80;;;6.60;;
63120;SDS011;54478;48.684;20.114;2022-07-01T13:05:54;10.63;;;6.60;;
63120;SDS011;54478;48.684;20.114;2022-07-01T13:08:23;7.35;;;6.15;;
63120;SDS011;54478;48.684;20.114;2022-07-01T13:10:52;9.23;;;6.53;;
63120;SDS011;54478;48.684;20.114;2022-07-01T13:13:20;9.63;;;6.13;;
63120;SDS011;54478;48.684;20.114;2022-07-01T13:15:49;7.05;;;5.93;;
63120;SDS011;54478;48.684;20.114;2022-07-01T13:18:17;7.88;;;6.18;;
63120;SDS011;54478;48.684;20.114;2022-07-01T13:20:46;6.75;;;6.00;;
63120;SDS011;54478;48.684;20.114;2022-07-01T13:23:14;9.13;;;6.13;;
63120;SDS011;54478;48.684;20.114;2022-07-01T13:25:43;10.60;;;5.70;;
63120;SDS011;54478;48.684;20.114;2022-07-01T13:28:11;7.97;;;5.47;;
63120;SDS011;54478;48.684;20.114;2022-07-01T13:30:36;11.73;;;6.78;;
63120;SDS011;54478;48.684;20.114;2022-07-01T13:33:05;8.07;;;6.03;;
63120;SDS011;54478;48.684;20.114;2022-07-01T13:35:35;9.85;;;6.22;;
63120;SDS011;54478;48.684;20.114;2022-07-01T13:38:03;9.95;;;6.22;;
63120;SDS011;54478;48.684;20.114;2022-07-01T13:40:32;8.52;;;5.85;;
63120;SDS011;54478;48.684;20.114;2022-07-01T13:43:00;8.88;;;5.70;;
63120;SDS011;54478;48.684;20.114;2022-07-01T13:45:28;8.43;;;5.90;;
63120;SDS011;54478;48.684;20.114;2022-07-01T13:47:57;7.43;;;5.50;;
63120;SDS011;54478;48.684;20.114;2022-07-01T13:50:25;9.80;;;5.53;;
63120;SDS011;54478;48.684;20.114;2022-07-01T13:52:54;8.75;;;5.15;;
63120;SDS011;54478;48.684;20.114;2022-07-01T13:55:22;11.35;;;6.13;;
63120;SDS011;54478;48.684;20.114;2022-07-01T13:57:50;10.20;;;5.38;;
63120;SDS011;54478;48.684;20.114;2022-07-01T14:00:19;7.82;;;5.65;;
63120;SDS011;54478;48.684;20.114;2022-07-01T14:02:48;11.68;;;6.60;;
63120;SDS011;54478;48.684;20.114;2022-07-01T14:05:16;8.55;;;5.03;;
63120;SDS011;54478;48.684;20.114;2022-07-01T14:07:44;8.68;;;5.13;;
63120;SDS011;54478;48.684;20.114;2022-07-01T14:10:13;7.85;;;6.20;;
63120;SDS011;54478;48.684;20.114;2022-07-01T14:12:41;8.13;;;5.72;;
63120;SDS011;54478;48.684;20.114;2022-07-01T14:15:07;9.05;;;5.90;;
63120;SDS011;54478;48.684;20.114;2022-07-01T14:17:35;8.27;;;6.95;;
63120;SDS011;54478;48.684;20.114;2022-07-01T14:20:05;9.07;;;6.10;;
63120;SDS011;54478;48.684;20.114;2022-07-01T14:22:33;8.50;;;6.43;;
63120;SDS011;54478;48.684;20.114;2022-07-01T14:25:06;9.00;;;6.38;;
63120;SDS011;54478;48.684;20.114;2022-07-01T14:27:35;8.80;;;6.30;;
63120;SDS011;54478;48.684;20.114;2022-07-01T14:30:04;9.68;;;6.75;;
63120;SDS011;54478;48.684;20.114;2022-07-01T14:32:34;13.20;;;6.10;;
63120;SDS011;54478;48.684;20.114;2022-07-01T14:35:04;12.60;;;6.57;;
63120;SDS011;54478;48.684;20.114;2022-07-01T14:37:33;16.73;;;7.10;;
63120;SDS011;54478;48.684;20.114;2022-07-01T14:40:03;11.73;;;7.13;;
63120;SDS011;54478;48.684;20.114;2022-07-01T14:42:32;14.35;;;7.50;;
63120;SDS011;54478;48.684;20.114;2022-07-01T14:45:00;10.00;;;6.45;;
63120;SDS011;54478;48.684;20.114;2022-07-01T14:47:28;9.32;;;7.13;;
63120;SDS011;54478;48.684;20.114;2022-07-01T14:49:57;11.75;;;6.95;;
63120;SDS011;54478;48.684;20.114;2022-07-01T14:52:26;12.75;;;7.88;;
63120;SDS011;54478;48.684;20.114;2022-07-01T14:54:55;12.48;;;7.03;;
63120;SDS011;54478;48.684;20.114;2022-07-01T14:57:23;11.60;;;7.53;;
63120;SDS011;54478;48.684;20.114;2022-07-01T14:59:52;10.27;;;7.22;;
63120;SDS011;54478;48.684;20.114;2022-07-01T15:02:20;10.98;;;6.55;;
63120;SDS011;54478;48.684;20.114;2022-07-01T15:04:49;9.85;;;7.10;;
63120;SDS011;54478;48.684;20.114;2022-07-01T15:07:17;10.30;;;7.15;;
63120;SDS011;54478;48.684;20.114;2022-07-01T15:09:45;8.25;;;6.50;;
63120;SDS011;54478;48.684;20.114;2022-07-01T15:12:14;7.03;;;5.78;;
63120;SDS011;54478;48.684;20.114;2022-07-01T15:14:44;11.68;;;6.95;;
63120;SDS011;54478;48.684;20.114;2022-07-01T15:17:12;8.55;;;6.45;;
63120;SDS011;54478;48.684;20.114;2022-07-01T15:19:41;10.93;;;7.07;;
63120;SDS011;54478;48.684;20.114;2022-07-01T15:22:10;10.25;;;6.82;;